sensor_id;sensor_type;location;lat;lon;timestamp;pressure;altitude;pressure_sealevel;temperature
76541;BMP280;65385;55.772;37.658;2023-09-19T00:00:21;100307.91;;;10.97
76541;BMP280;65385;55.772;37.658;2023-09-19T00:01:25;100308.97;;;10.96
76541;BMP280;65385;55.772;37.658;2023-09-19T00:02:25;100308.97;;;10.96
76541;BMP280;65385;55.772;37.658;2023-09-19T00:03:26;100316.81;;;10.96
76541;BMP280;65385;55.772;37.658;2023-09-19T00:04:31;100315.75;;;10.97
76541;BMP280;65385;55.772;37.658;2023-09-19T00:05:36;100305.53;;;10.95
76541;BMP280;65385;55.772;37.658;2023-09-19T00:06:39;100310.78;;;10.95
76541;BMP280;65385;55.772;37.658;2023-09-19T00:07:39;100304.75;;;10.95
76541;BMP280;65385;55.772;37.658;2023-09-19T00:08:41;100307.63;;;10.93
76541;BMP280;65385;55.772;37.658;2023-09-19T00:09:44;100306.84;;;10.93
76541;BMP280;65385;55.772;37.658;2023-09-19T00:10:44;100309.69;;;10.91
76541;BMP280;65385;55.772;37.658;2023-09-19T00:11:45;100312.06;;;10.93
76541;BMP280;65385;55.772;37.658;2023-09-19T00:12:47;100312.88;;;10.93
76541;BMP280;65385;55.772;37.658;2023-09-19T00:13:48;100318.91;;;10.94
76541;BMP280;65385;55.772;37.658;2023-09-19T00:14:50;100314.44;;;10.94
76541;BMP280;65385;55.772;37.658;2023-09-19T00:15:51;100311.03;;;10.94
76541;BMP280;65385;55.772;37.658;2023-09-19T00:16:52;100318.91;;;10.94
76541;BMP280;65385;55.772;37.658;2023-09-19T00:17:55;100320.47;;;10.95
76541;BMP280;65385;55.772;37.658;2023-09-19T00:18:56;100319.69;;;10.94
76541;BMP280;65385;55.772;37.658;2023-09-19T00:19:57;100311.56;;;10.96
76541;BMP280;65385;55.772;37.658;2023-09-19T00:20:58;100313.94;;;10.97
76541;BMP280;65385;55.772;37.658;2023-09-19T00:21:59;100315.53;;;10.98
76541;BMP280;65385;55.772;37.658;2023-09-19T00:22:59;100315.28;;;11.00
76541;BMP280;65385;55.772;37.658;2023-09-19T00:24:06;100311.63;;;11.01
76541;BMP280;65385;55.772;37.658;2023-09-19T00:25:07;100319.22;;;11.02
76541;BMP280;65385;55.772;37.658;2023-09-19T00:26:07;100319.00;;;11.04
76541;BMP280;65385;55.772;37.658;2023-09-19T00:27:08;100316.13;;;11.05
76541;BMP280;65385;55.772;37.658;2023-09-19T00:28:08;100315.88;;;11.07
76541;BMP280;65385;55.772;37.658;2023-09-19T00:29:10;100304.38;;;11.08
76541;BMP280;65385;55.772;37.658;2023-09-19T00:30:12;100306.75;;;11.09
76541;BMP280;65385;55.772;37.658;2023-09-19T00:31:21;100313.81;;;11.09
76541;BMP280;65385;55.772;37.658;2023-09-19T00:32:25;100304.38;;;11.08
76541;BMP280;65385;55.772;37.658;2023-09-19T00:33:32;100313.25;;;11.07
76541;BMP280;65385;55.772;37.658;2023-09-19T00:34:32;100310.66;;;11.07
76541;BMP280;65385;55.772;37.658;2023-09-19T00:35:34;100316.91;;;11.06
76541;BMP280;65385;55.772;37.658;2023-09-19T00:36:35;100311.69;;;11.06
76541;BMP280;65385;55.772;37.658;2023-09-19T00:37:37;100316.13;;;11.05
76541;BMP280;65385;55.772;37.658;2023-09-19T00:38:37;100310.09;;;11.05
76541;BMP280;65385;55.772;37.658;2023-09-19T00:39:38;100310.88;;;11.05
76541;BMP280;65385;55.772;37.658;2023-09-19T00:40:44;100313.75;;;11.04
76541;BMP280;65385;55.772;37.658;2023-09-19T00:41:44;100316.13;;;11.05
76541;BMP280;65385;55.772;37.658;2023-09-19T00:42:46;100319.53;;;11.06
76541;BMP280;65385;55.772;37.658;2023-09-19T00:43:46;100312.72;;;11.05
76541;BMP280;65385;55.772;37.658;2023-09-19T00:44:48;100315.31;;;11.05
76541;BMP280;65385;55.772;37.658;2023-09-19T00:45:52;100311.94;;;11.04
76541;BMP280;65385;55.772;37.658;2023-09-19T00:46:54;100319.78;;;11.04
76541;BMP280;65385;55.772;37.658;2023-09-19T00:47:55;100319.78;;;11.04
76541;BMP280;65385;55.772;37.658;2023-09-19T00:48:56;100313.75;;;11.04
76541;BMP280;65385;55.772;37.658;2023-09-19T00:49:58;100313.75;;;11.04
76541;BMP280;65385;55.772;37.658;2023-09-19T00:51:02;100317.41;;;11.03
76541;BMP280;65385;55.772;37.658;2023-09-19T00:52:05;100318.19;;;11.03
76541;BMP280;65385;55.772;37.658;2023-09-19T00:53:06;100322.66;;;11.03
76541;BMP280;65385;55.772;37.658;2023-09-19T00:54:08;100314.00;;;11.02
76541;BMP280;65385;55.772;37.658;2023-09-19T00:55:10;100316.88;;;11.01
76541;BMP280;65385;55.772;37.658;2023-09-19T00:56:11;100319.50;;;11.01
76541;BMP280;65385;55.772;37.658;2023-09-19T00:57:11;100317.91;;;11.00
76541;BMP280;65385;55.772;37.658;2023-09-19T00:58:12;100317.13;;;10.99
76541;BMP280;65385;55.772;37.658;2023-09-19T00:59:13;100315.53;;;10.98
76541;BMP280;65385;55.772;37.658;2023-09-19T01:00:14;100314.72;;;10.98
76541;BMP280;65385;55.772;37.658;2023-09-19T01:01:20;100312.91;;;10.98
76541;BMP280;65385;55.772;37.658;2023-09-19T01:02:21;100313.94;;;10.97
76541;BMP280;65385;55.772;37.658;2023-09-19T01:03:22;100326.22;;;10.97
76541;BMP280;65385;55.772;37.658;2023-09-19T01:04:23;100314.19;;;10.96
76541;BMP280;65385;55.772;37.658;2023-09-19T01:05:24;100314.19;;;10.96
76541;BMP280;65385;55.772;37.658;2023-09-19T01:06:25;100317.84;;;10.95
76541;BMP280;65385;55.772;37.658;2023-09-19T01:07:28;100314.44;;;10.94
76541;BMP280;65385;55.772;37.658;2023-09-19T01:08:34;100311.03;;;10.94
76541;BMP280;65385;55.772;37.658;2023-09-19T01:09:35;100308.66;;;10.92
76541;BMP280;65385;55.772;37.658;2023-09-19T01:10:37;100309.69;;;10.91
76541;BMP280;65385;55.772;37.658;2023-09-19T01:11:47;100301.84;;;10.91
76541;BMP280;65385;55.772;37.658;2023-09-19T01:13:59;100307.31;;;10.90
76541;BMP280;65385;55.772;37.658;2023-09-19T01:15:09;100318.81;;;10.89
76541;BMP280;65385;55.772;37.658;2023-09-19T01:16:31;100313.81;;;10.87
76541;BMP280;65385;55.772;37.658;2023-09-19T01:17:43;100313.59;;;10.89
76541;BMP280;65385;55.772;37.658;2023-09-19T01:18:58;100308.59;;;10.87
76541;BMP280;65385;55.772;37.658;2023-09-19T01:24:15;100307.03;;;10.86
76541;BMP280;65385;55.772;37.658;2023-09-19T01:28:20;100300.22;;;10.85
76541;BMP280;65385;55.772;37.658;2023-09-19T01:30:06;100299.41;;;10.84
76541;BMP280;65385;55.772;37.658;2023-09-19T01:31:10;100306.69;;;10.82
76541;BMP280;65385;55.772;37.658;2023-09-19T01:32:15;100312.72;;;10.83
76541;BMP280;65385;55.772;37.658;2023-09-19T01:33:17;100300.66;;;10.82
76541;BMP280;65385;55.772;37.658;2023-09-19T01:34:18;100311.94;;;10.82
76541;BMP280;65385;55.772;37.658;2023-09-19T01:35:19;100302.25;;;10.83
76541;BMP280;65385;55.772;37.658;2023-09-19T01:36:19;100297.81;;;10.83
76541;BMP280;65385;55.772;37.658;2023-09-19T01:37:21;100298.84;;;10.82
76541;BMP280;65385;55.772;37.658;2023-09-19T01:38:25;100297.03;;;10.83
76541;BMP280;65385;55.772;37.658;2023-09-19T01:39:29;100302.25;;;10.83
76541;BMP280;65385;55.772;37.658;2023-09-19T01:40:30;100299.41;;;10.84
76541;BMP280;65385;55.772;37.658;2023-09-19T01:41:45;100296.78;;;10.84
76541;BMP280;65385;55.772;37.658;2023-09-19T01:43:59;100297.03;;;10.83
76541;BMP280;65385;55.772;37.658;2023-09-19T01:45:24;100291.78;;;10.83
76541;BMP280;65385;55.772;37.658;2023-09-19T01:46:34;100291.00;;;10.82
76541;BMP280;65385;55.772;37.658;2023-09-19T01:47:40;100305.69;;;10.83
76541;BMP280;65385;55.772;37.658;2023-09-19T01:48:54;100294.19;;;10.84
76541;BMP280;65385;55.772;37.658;2023-09-19T01:51:03;100294.19;;;10.84
76541;BMP280;65385;55.772;37.658;2023-09-19T01:52:15;100294.75;;;10.87
76541;BMP280;65385;55.772;37.658;2023-09-19T01:53:50;100296.28;;;10.88
76541;BMP280;65385;55.772;37.658;2023-09-19T01:54:56;100291.84;;;10.88
76541;BMP280;65385;55.772;37.658;2023-09-19T01:55:59;100290.81;;;10.89
76541;BMP280;65385;55.772;37.658;2023-09-19T01:57:20;100288.75;;;10.91
76541;BMP280;65385;55.772;37.658;2023-09-19T01:59:45;100277.25;;;10.92
76541;BMP280;65385;55.772;37.658;2023-09-19T02:00:48;100285.91;;;10.93
76541;BMP280;65385;55.772;37.658;2023-09-19T02:01:53;100281.19;;;10.95
76541;BMP280;65385;55.772;37.658;2023-09-19T02:02:56;100282.78;;;10.96
76541;BMP280;65385;55.772;37.658;2023-09-19T02:03:58;100286.97;;;10.97
76541;BMP280;65385;55.772;37.658;2023-09-19T02:04:58;100272.03;;;10.97
76541;BMP280;65385;55.772;37.658;2023-09-19T02:06:01;100268.41;;;10.98
76541;BMP280;65385;55.772;37.658;2023-09-19T02:07:03;100276.81;;;11.00
76541;BMP280;65385;55.772;37.658;2023-09-19T02:08:06;100275.47;;;10.98
76541;BMP280;65385;55.772;37.658;2023-09-19T02:09:06;100277.34;;;11.02
76541;BMP280;65385;55.772;37.658;2023-09-19T02:10:07;100279.16;;;11.02
76541;BMP280;65385;55.772;37.658;2023-09-19T02:11:11;100271.31;;;11.02
76541;BMP280;65385;55.772;37.658;2023-09-19T02:12:11;100267.94;;;11.01
76541;BMP280;65385;55.772;37.658;2023-09-19T02:13:12;100268.69;;;11.02
76541;BMP280;65385;55.772;37.658;2023-09-19T02:14:12;100266.06;;;11.02
76541;BMP280;65385;55.772;37.658;2023-09-19T02:15:14;100264.25;;;11.02
76541;BMP280;65385;55.772;37.658;2023-09-19T02:16:16;100265.84;;;11.03
76541;BMP280;65385;55.772;37.658;2023-09-19T02:17:17;100264.25;;;11.02
76541;BMP280;65385;55.772;37.658;2023-09-19T02:18:17;100276.06;;;11.05
76541;BMP280;65385;55.772;37.658;2023-09-19T02:19:18;100270.06;;;11.04
76541;BMP280;65385;55.772;37.658;2023-09-19T02:20:21;100268.47;;;11.03
76541;BMP280;65385;55.772;37.658;2023-09-19T02:21:21;100271.88;;;11.04
76541;BMP280;65385;55.772;37.658;2023-09-19T02:22:22;100270.28;;;11.03
76541;BMP280;65385;55.772;37.658;2023-09-19T02:23:23;100272.91;;;11.03
76541;BMP280;65385;55.772;37.658;2023-09-19T02:24:23;100273.94;;;11.02
76541;BMP280;65385;55.772;37.658;2023-09-19T02:25:24;100273.16;;;11.01
76541;BMP280;65385;55.772;37.658;2023-09-19T02:26:27;100269.75;;;11.01
76541;BMP280;65385;55.772;37.658;2023-09-19T02:27:27;100262.69;;;11.01
76541;BMP280;65385;55.772;37.658;2023-09-19T02:28:28;100256.91;;;10.99
76541;BMP280;65385;55.772;37.658;2023-09-19T02:29:31;100255.31;;;10.98
76541;BMP280;65385;55.772;37.658;2023-09-19T02:30:32;100257.13;;;10.98
76541;BMP280;65385;55.772;37.658;2023-09-19T02:31:33;100257.63;;;10.95
76541;BMP280;65385;55.772;37.658;2023-09-19T02:32:33;100258.94;;;10.92
76541;BMP280;65385;55.772;37.658;2023-09-19T02:33:36;100254.44;;;10.88
76541;BMP280;65385;55.772;37.658;2023-09-19T02:34:37;100254.69;;;10.86
76541;BMP280;65385;55.772;37.658;2023-09-19T02:35:39;100263.00;;;10.83
76541;BMP280;65385;55.772;37.658;2023-09-19T02:36:39;100260.88;;;10.80
76541;BMP280;65385;55.772;37.658;2023-09-19T02:37:40;100261.16;;;10.78
76541;BMP280;65385;55.772;37.658;2023-09-19T02:38:40;100251.72;;;10.77
76541;BMP280;65385;55.772;37.658;2023-09-19T02:39:41;100262.63;;;10.74
76541;BMP280;65385;55.772;37.658;2023-09-19T02:40:41;100249.06;;;10.72
76541;BMP280;65385;55.772;37.658;2023-09-19T02:41:43;100256.34;;;10.70
76541;BMP280;65385;55.772;37.658;2023-09-19T02:42:48;100259.41;;;10.67
76541;BMP280;65385;55.772;37.658;2023-09-19T02:43:50;100257.34;;;10.64
76541;BMP280;65385;55.772;37.658;2023-09-19T02:44:50;100252.34;;;10.63
76541;BMP280;65385;55.772;37.658;2023-09-19T02:45:51;100255.19;;;10.61
76541;BMP280;65385;55.772;37.658;2023-09-19T02:46:53;100253.03;;;10.58
76541;BMP280;65385;55.772;37.658;2023-09-19T02:47:54;100249.91;;;10.56
76541;BMP280;65385;55.772;37.658;2023-09-19T02:48:55;100245.13;;;10.53
76541;BMP280;65385;55.772;37.658;2023-09-19T02:49:55;100238.81;;;10.49
76541;BMP280;65385;55.772;37.658;2023-09-19T02:50:56;100253.72;;;10.49
76541;BMP280;65385;55.772;37.658;2023-09-19T02:51:57;100257.63;;;10.46
76541;BMP280;65385;55.772;37.658;2023-09-19T02:52:59;100259.66;;;10.44
76541;BMP280;65385;55.772;37.658;2023-09-19T02:54:00;100261.75;;;10.42
76541;BMP280;65385;55.772;37.658;2023-09-19T02:55:00;100255.41;;;10.38
76541;BMP280;65385;55.772;37.658;2023-09-19T02:56:01;100257.25;;;10.38
76541;BMP280;65385;55.772;37.658;2023-09-19T02:57:04;100265.34;;;10.36
76541;BMP280;65385;55.772;37.658;2023-09-19T02:58:07;100256.13;;;10.33
76541;BMP280;65385;55.772;37.658;2023-09-19T02:59:14;100258.97;;;10.32
76541;BMP280;65385;55.772;37.658;2023-09-19T03:00:17;100260.84;;;10.31
76541;BMP280;65385;55.772;37.658;2023-09-19T03:01:21;100254.25;;;10.29
76541;BMP280;65385;55.772;37.658;2023-09-19T03:02:22;100261.06;;;10.30
76541;BMP280;65385;55.772;37.658;2023-09-19T03:03:24;100265.50;;;10.29
76541;BMP280;65385;55.772;37.658;2023-09-19T03:04:25;100266.56;;;10.28
76541;BMP280;65385;55.772;37.658;2023-09-19T03:05:27;100267.56;;;10.27
76541;BMP280;65385;55.772;37.658;2023-09-19T03:06:31;100265.19;;;10.26
76541;BMP280;65385;55.772;37.658;2023-09-19T03:07:31;100274.06;;;10.25
76541;BMP280;65385;55.772;37.658;2023-09-19T03:08:32;100267.25;;;10.24
76541;BMP280;65385;55.772;37.658;2023-09-19T03:09:36;100266.47;;;10.23
76541;BMP280;65385;55.772;37.658;2023-09-19T03:10:36;100260.44;;;10.23
76541;BMP280;65385;55.772;37.658;2023-09-19T03:11:38;100259.41;;;10.24
76541;BMP280;65385;55.772;37.658;2023-09-19T03:12:40;100258.38;;;10.25
76541;BMP280;65385;55.772;37.658;2023-09-19T03:13:41;100257.34;;;10.26
76541;BMP280;65385;55.772;37.658;2023-09-19T03:14:42;100264.69;;;10.29
76541;BMP280;65385;55.772;37.658;2023-09-19T03:15:43;100266.28;;;10.30
76541;BMP280;65385;55.772;37.658;2023-09-19T03:16:47;100258.22;;;10.31
76541;BMP280;65385;55.772;37.658;2023-09-19T03:17:49;100265.56;;;10.34
76541;BMP280;65385;55.772;37.658;2023-09-19T03:18:54;100270.56;;;10.36
76541;BMP280;65385;55.772;37.658;2023-09-19T03:19:56;100264.06;;;10.39
76541;BMP280;65385;55.772;37.658;2023-09-19T03:20:57;100267.22;;;10.41
76541;BMP280;65385;55.772;37.658;2023-09-19T03:22:01;100263.34;;;10.43
76541;BMP280;65385;55.772;37.658;2023-09-19T03:23:04;100257.84;;;10.45
76541;BMP280;65385;55.772;37.658;2023-09-19T03:24:06;100265.47;;;10.46
76541;BMP280;65385;55.772;37.658;2023-09-19T03:25:07;100267.84;;;10.48
76541;BMP280;65385;55.772;37.658;2023-09-19T03:26:13;100266.03;;;10.48
76541;BMP280;65385;55.772;37.658;2023-09-19T03:27:16;100265.75;;;10.50
76541;BMP280;65385;55.772;37.658;2023-09-19T03:28:16;100274.16;;;10.52
76541;BMP280;65385;55.772;37.658;2023-09-19T03:29:18;100266.84;;;10.54
76541;BMP280;65385;55.772;37.658;2023-09-19T03:30:19;100264.00;;;10.55
76541;BMP280;65385;55.772;37.658;2023-09-19T03:31:20;100271.34;;;10.58
76541;BMP280;65385;55.772;37.658;2023-09-19T03:32:21;100265.06;;;10.59
76541;BMP280;65385;55.772;37.658;2023-09-19T03:33:22;100268.25;;;10.61
76541;BMP280;65385;55.772;37.658;2023-09-19T03:34:23;100256.53;;;10.64
76541;BMP280;65385;55.772;37.658;2023-09-19T03:35:23;100265.69;;;10.66
76541;BMP280;65385;55.772;37.658;2023-09-19T03:36:24;100266.25;;;10.68
76541;BMP280;65385;55.772;37.658;2023-09-19T03:37:24;100269.44;;;10.70
76541;BMP280;65385;55.772;37.658;2023-09-19T03:38:25;100258.72;;;10.72
76541;BMP280;65385;55.772;37.658;2023-09-19T03:39:26;100265.25;;;10.74
76541;BMP280;65385;55.772;37.658;2023-09-19T03:40:27;100264.22;;;10.75
76541;BMP280;65385;55.772;37.658;2023-09-19T03:41:27;100262.19;;;10.77
76541;BMP280;65385;55.772;37.658;2023-09-19T03:42:28;100265.34;;;10.79
76541;BMP280;65385;55.772;37.658;2023-09-19T03:43:29;100271.09;;;10.81
76541;BMP280;65385;55.772;37.658;2023-09-19T03:44:30;100258.78;;;10.82
76541;BMP280;65385;55.772;37.658;2023-09-19T03:45:31;100260.38;;;10.83
76541;BMP280;65385;55.772;37.658;2023-09-19T03:46:31;100263.56;;;10.85
76541;BMP280;65385;55.772;37.658;2023-09-19T03:47:33;100255.47;;;10.87
76541;BMP280;65385;55.772;37.658;2023-09-19T03:48:36;100252.06;;;10.86
76541;BMP280;65385;55.772;37.658;2023-09-19T03:49:37;100265.94;;;10.87
76541;BMP280;65385;55.772;37.658;2023-09-19T03:50:38;100257.03;;;10.88
76541;BMP280;65385;55.772;37.658;2023-09-19T03:51:38;100262.00;;;10.89
76541;BMP280;65385;55.772;37.658;2023-09-19T03:52:41;100259.41;;;10.89
76541;BMP280;65385;55.772;37.658;2023-09-19T03:53:42;100259.41;;;10.89
76541;BMP280;65385;55.772;37.658;2023-09-19T03:54:44;100259.41;;;10.89
76541;BMP280;65385;55.772;37.658;2023-09-19T03:55:45;100262.00;;;10.89
76541;BMP280;65385;55.772;37.658;2023-09-19T03:56:46;100264.63;;;10.89
76541;BMP280;65385;55.772;37.658;2023-09-19T03:57:50;100260.97;;;10.90
76541;BMP280;65385;55.772;37.658;2023-09-19T03:58:51;100254.72;;;10.91
76541;BMP280;65385;55.772;37.658;2023-09-19T03:59:52;100258.13;;;10.92
76541;BMP280;65385;55.772;37.658;2023-09-19T04:00:56;100262.88;;;10.95
76541;BMP280;65385;55.772;37.658;2023-09-19T04:01:58;100260.25;;;10.95
76541;BMP280;65385;55.772;37.658;2023-09-19T04:02:59;100254.78;;;10.96
76541;BMP280;65385;55.772;37.658;2023-09-19T04:04:02;100257.63;;;10.95
76541;BMP280;65385;55.772;37.658;2023-09-19T04:05:10;100257.63;;;10.95
76541;BMP280;65385;55.772;37.658;2023-09-19T04:06:14;100251.38;;;10.96
76541;BMP280;65385;55.772;37.658;2023-09-19T04:07:16;100260.78;;;10.97
76541;BMP280;65385;55.772;37.658;2023-09-19T04:08:17;100254.78;;;10.96
76541;BMP280;65385;55.772;37.658;2023-09-19T04:09:17;100254.78;;;10.96
76541;BMP280;65385;55.772;37.658;2023-09-19T04:10:18;100258.16;;;10.97
76541;BMP280;65385;55.772;37.658;2023-09-19T04:11:19;100251.91;;;10.98
76541;BMP280;65385;55.772;37.658;2023-09-19T04:12:20;100260.31;;;11.00
76541;BMP280;65385;55.772;37.658;2023-09-19T04:13:20;100257.69;;;11.00
76541;BMP280;65385;55.772;37.658;2023-09-19T04:14:21;100252.47;;;11.00
76541;BMP280;65385;55.772;37.658;2023-09-19T04:15:24;100251.44;;;11.01
76541;BMP280;65385;55.772;37.658;2023-09-19T04:16:27;100253.78;;;11.02
76541;BMP280;65385;55.772;37.658;2023-09-19T04:17:27;100249.34;;;11.03
76541;BMP280;65385;55.772;37.658;2023-09-19T04:18:28;100256.16;;;11.04
76541;BMP280;65385;55.772;37.658;2023-09-19T04:19:31;100246.22;;;11.06
76541;BMP280;65385;55.772;37.658;2023-09-19T04:20:32;100250.44;;;11.07
76541;BMP280;65385;55.772;37.658;2023-09-19T04:21:32;100246.28;;;11.11
76541;BMP280;65385;55.772;37.658;2023-09-19T04:22:33;100245.00;;;11.13
76541;BMP280;65385;55.772;37.658;2023-09-19T04:23:34;100246.88;;;11.18
76541;BMP280;65385;55.772;37.658;2023-09-19T04:24:35;100251.59;;;11.21
76541;BMP280;65385;55.772;37.658;2023-09-19T04:25:35;100245.09;;;11.23
76541;BMP280;65385;55.772;37.658;2023-09-19T04:26:37;100242.78;;;11.27
76541;BMP280;65385;55.772;37.658;2023-09-19T04:27:37;100235.22;;;11.30
76541;BMP280;65385;55.772;37.658;2023-09-19T04:28:38;100247.25;;;11.31
76541;BMP280;65385;55.772;37.658;2023-09-19T04:29:39;100238.63;;;11.36
76541;BMP280;65385;55.772;37.658;2023-09-19T04:30:39;100230.78;;;11.36
76541;BMP280;65385;55.772;37.658;2023-09-19T04:31:42;100227.66;;;11.39
76541;BMP280;65385;55.772;37.658;2023-09-19T04:32:45;100230.03;;;11.41
76541;BMP280;65385;55.772;37.658;2023-09-19T04:33:50;100229.25;;;11.40
76541;BMP280;65385;55.772;37.658;2023-09-19T04:34:51;100224.00;;;11.40
76541;BMP280;65385;55.772;37.658;2023-09-19T04:35:54;100229.25;;;11.40
76541;BMP280;65385;55.772;37.658;2023-09-19T04:36:55;100229.25;;;11.40
76541;BMP280;65385;55.772;37.658;2023-09-19T04:37:58;100230.84;;;11.41
76541;BMP280;65385;55.772;37.658;2023-09-19T04:38:59;100231.88;;;11.40
76541;BMP280;65385;55.772;37.658;2023-09-19T04:39:59;100225.59;;;11.41
76541;BMP280;65385;55.772;37.658;2023-09-19T04:41:00;100226.38;;;11.42
76541;BMP280;65385;55.772;37.658;2023-09-19T04:42:01;100226.13;;;11.43
76541;BMP280;65385;55.772;37.658;2023-09-19T04:43:01;100219.06;;;11.44
76541;BMP280;65385;55.772;37.658;2023-09-19T04:44:03;100226.69;;;11.45
76541;BMP280;65385;55.772;37.658;2023-09-19T04:45:04;100226.69;;;11.45
76541;BMP280;65385;55.772;37.658;2023-09-19T04:46:05;100223.00;;;11.46
76541;BMP280;65385;55.772;37.658;2023-09-19T04:47:06;100220.38;;;11.46
76541;BMP280;65385;55.772;37.658;2023-09-19T04:48:07;100215.94;;;11.47
76541;BMP280;65385;55.772;37.658;2023-09-19T04:49:08;100222.75;;;11.48
76541;BMP280;65385;55.772;37.658;2023-09-19T04:50:09;100220.38;;;11.46
76541;BMP280;65385;55.772;37.658;2023-09-19T04:51:14;100223.78;;;11.47
76541;BMP280;65385;55.772;37.658;2023-09-19T04:52:15;100220.13;;;11.48
76541;BMP280;65385;55.772;37.658;2023-09-19T04:53:17;100220.44;;;11.51
76541;BMP280;65385;55.772;37.658;2023-09-19T04:54:19;100223.56;;;11.53
76541;BMP280;65385;55.772;37.658;2023-09-19T04:55:19;100223.34;;;11.55
76541;BMP280;65385;55.772;37.658;2023-09-19T04:56:20;100224.66;;;11.57
76541;BMP280;65385;55.772;37.658;2023-09-19T04:57:21;100225.22;;;11.59
76541;BMP280;65385;55.772;37.658;2023-09-19T04:58:22;100229.94;;;11.62
76541;BMP280;65385;55.772;37.658;2023-09-19T04:59:23;100234.66;;;11.65
76541;BMP280;65385;55.772;37.658;2023-09-19T05:00:23;100224.72;;;11.67
76541;BMP280;65385;55.772;37.658;2023-09-19T05:01:25;100233.13;;;11.69
76541;BMP280;65385;55.772;37.658;2023-09-19T05:02:29;100233.41;;;11.73
76541;BMP280;65385;55.772;37.658;2023-09-19T05:03:31;100230.56;;;11.74
76541;BMP280;65385;55.772;37.658;2023-09-19T05:04:31;100236.06;;;11.78
76541;BMP280;65385;55.772;37.658;2023-09-19T05:05:32;100232.94;;;11.81
76541;BMP280;65385;55.772;37.658;2023-09-19T05:06:35;100234.25;;;11.83
76541;BMP280;65385;55.772;37.658;2023-09-19T05:07:36;100237.16;;;11.87
76541;BMP280;65385;55.772;37.658;2023-09-19T05:08:36;100236.94;;;11.89
76541;BMP280;65385;55.772;37.658;2023-09-19T05:09:37;100232.75;;;11.93
76541;BMP280;65385;55.772;37.658;2023-09-19T05:10:37;100235.91;;;11.95
76541;BMP280;65385;55.772;37.658;2023-09-19T05:11:38;100228.56;;;11.97
76541;BMP280;65385;55.772;37.658;2023-09-19T05:12:40;100224.66;;;11.99
76541;BMP280;65385;55.772;37.658;2023-09-19T05:13:41;100219.19;;;12.01
76541;BMP280;65385;55.772;37.658;2023-09-19T05:14:41;100218.91;;;12.02
76541;BMP280;65385;55.772;37.658;2023-09-19T05:15:42;100218.63;;;12.04
76541;BMP280;65385;55.772;37.658;2023-09-19T05:16:42;100219.19;;;12.06
76541;BMP280;65385;55.772;37.658;2023-09-19T05:17:50;100223.66;;;12.10
76541;BMP280;65385;55.772;37.658;2023-09-19T05:18:52;100216.59;;;12.11
76541;BMP280;65385;55.772;37.658;2023-09-19T05:19:52;100217.91;;;12.13
76541;BMP280;65385;55.772;37.658;2023-09-19T05:20:53;100212.94;;;12.17
76541;BMP280;65385;55.772;37.658;2023-09-19T05:21:55;100215.28;;;12.18
76541;BMP280;65385;55.772;37.658;2023-09-19T05:23:02;100217.94;;;12.23
76541;BMP280;65385;55.772;37.658;2023-09-19T05:24:03;100219.25;;;12.26
76541;BMP280;65385;55.772;37.658;2023-09-19T05:25:04;100214.03;;;12.31
76541;BMP280;65385;55.772;37.658;2023-09-19T05:26:05;100208.81;;;12.36
76541;BMP280;65385;55.772;37.658;2023-09-19T05:27:05;100216.44;;;12.43
76541;BMP280;65385;55.772;37.658;2023-09-19T05:28:09;100215.69;;;12.47
76541;BMP280;65385;55.772;37.658;2023-09-19T05:29:11;100215.69;;;12.52
76541;BMP280;65385;55.772;37.658;2023-09-19T05:30:13;100213.84;;;12.58
76541;BMP280;65385;55.772;37.658;2023-09-19T05:31:15;100206.25;;;12.66
76541;BMP280;65385;55.772;37.658;2023-09-19T05:32:17;100211.25;;;12.73
76541;BMP280;65385;55.772;37.658;2023-09-19T05:33:18;100205.75;;;12.79
76541;BMP280;65385;55.772;37.658;2023-09-19T05:34:19;100200.25;;;12.86
76541;BMP280;65385;55.772;37.658;2023-09-19T05:35:20;100204.19;;;12.94
76541;BMP280;65385;55.772;37.658;2023-09-19T05:36:21;100213.94;;;13.03
76541;BMP280;65385;55.772;37.658;2023-09-19T05:37:22;100206.59;;;13.10
76541;BMP280;65385;55.772;37.658;2023-09-19T05:38:23;100208.94;;;13.22
76541;BMP280;65385;55.772;37.658;2023-09-19T05:39:25;100201.03;;;13.42
76541;BMP280;65385;55.772;37.658;2023-09-19T05:40:26;100199.41;;;13.66
76541;BMP280;65385;55.772;37.658;2023-09-19T05:41:27;100213.50;;;13.96
76541;BMP280;65385;55.772;37.658;2023-09-19T05:42:28;100210.25;;;14.19
76541;BMP280;65385;55.772;37.658;2023-09-19T05:43:28;100198.84;;;14.33
76541;BMP280;65385;55.772;37.658;2023-09-19T05:44:29;100206.91;;;14.47
76541;BMP280;65385;55.772;37.658;2023-09-19T05:45:29;100199.50;;;14.54
76541;BMP280;65385;55.772;37.658;2023-09-19T05:46:31;100199.19;;;14.61
76541;BMP280;65385;55.772;37.658;2023-09-19T05:47:31;100210.47;;;14.66
76541;BMP280;65385;55.772;37.658;2023-09-19T05:48:32;100201.75;;;14.76
76541;BMP280;65385;55.772;37.658;2023-09-19T05:49:33;100202.47;;;14.81
76541;BMP280;65385;55.772;37.658;2023-09-19T05:50:33;100202.66;;;14.90
76541;BMP280;65385;55.772;37.658;2023-09-19T05:51:34;100197.88;;;14.97
76541;BMP280;65385;55.772;37.658;2023-09-19T05:52:36;100198.09;;;15.01
76541;BMP280;65385;55.772;37.658;2023-09-19T05:53:37;100203.84;;;15.08
76541;BMP280;65385;55.772;37.658;2023-09-19T05:54:38;100201.94;;;15.13
76541;BMP280;65385;55.772;37.658;2023-09-19T05:55:39;100211.97;;;15.16
76541;BMP280;65385;55.772;37.658;2023-09-19T05:56:39;100200.31;;;15.17
76541;BMP280;65385;55.772;37.658;2023-09-19T05:57:40;100205.38;;;15.14
76541;BMP280;65385;55.772;37.658;2023-09-19T05:58:42;100196.34;;;15.20
76541;BMP280;65385;55.772;37.658;2023-09-19T05:59:44;100193.09;;;15.28
76541;BMP280;65385;55.772;37.658;2023-09-19T06:00:45;100203.06;;;15.36